sensor_id;sensor_type;location;lat;lon;timestamp;temperature;humidity
46159;DHT22;74657;45.650;25.590;2024-02-23T00:00:38;4.50;99.90
46159;DHT22;74657;45.650;25.590;2024-02-23T00:03:03;4.50;99.90
46159;DHT22;74657;45.650;25.590;2024-02-23T00:05:26;4.50;99.90
46159;DHT22;74657;45.650;25.590;2024-02-23T00:07:50;4.50;99.90
46159;DHT22;74657;45.650;25.590;2024-02-23T00:10:13;4.50;99.90
46159;DHT22;74657;45.650;25.590;2024-02-23T00:12:36;4.40;99.90
46159;DHT22;74657;45.650;25.590;2024-02-23T00:15:00;4.40;99.90
46159;DHT22;74657;45.650;25.590;2024-02-23T00:17:23;4.40;99.90
46159;DHT22;74657;45.650;25.590;2024-02-23T00:19:48;4.50;99.90
46159;DHT22;74657;45.650;25.590;2024-02-23T00:22:14;4.60;99.90
46159;DHT22;74657;45.650;25.590;2024-02-23T00:24:37;4.50;99.90
46159;DHT22;74657;45.650;25.590;2024-02-23T00:27:02;4.50;99.90
46159;DHT22;74657;45.650;25.590;2024-02-23T00:29:25;4.50;99.90
46159;DHT22;74657;45.650;25.590;2024-02-23T00:31:48;4.50;99.90
46159;DHT22;74657;45.650;25.590;2024-02-23T00:34:11;4.50;99.90
46159;DHT22;74657;45.650;25.590;2024-02-23T00:36:36;4.60;99.90
46159;DHT22;74657;45.650;25.590;2024-02-23T00:39:00;4.60;99.90
46159;DHT22;74657;45.650;25.590;2024-02-23T00:41:23;4.70;99.90
46159;DHT22;74657;45.650;25.590;2024-02-23T00:43:47;4.70;99.90
46159;DHT22;74657;45.650;25.590;2024-02-23T00:46:10;4.80;99.90
46159;DHT22;74657;45.650;25.590;2024-02-23T00:48:37;4.80;99.90
46159;DHT22;74657;45.650;25.590;2024-02-23T00:51:01;4.80;99.90
46159;DHT22;74657;45.650;25.590;2024-02-23T00:53:27;4.80;99.90
46159;DHT22;74657;45.650;25.590;2024-02-23T00:55:50;4.80;99.90
46159;DHT22;74657;45.650;25.590;2024-02-23T00:58:13;4.80;99.90
46159;DHT22;74657;45.650;25.590;2024-02-23T01:00:37;4.90;99.90
46159;DHT22;74657;45.650;25.590;2024-02-23T01:03:01;5.00;99.90
46159;DHT22;74657;45.650;25.590;2024-02-23T01:05:23;5.00;99.90
46159;DHT22;74657;45.650;25.590;2024-02-23T01:07:46;5.10;99.90
46159;DHT22;74657;45.650;25.590;2024-02-23T01:10:11;5.20;99.90
46159;DHT22;74657;45.650;25.590;2024-02-23T01:12:34;5.20;99.90
46159;DHT22;74657;45.650;25.590;2024-02-23T01:14:58;5.30;99.90
46159;DHT22;74657;45.650;25.590;2024-02-23T01:17:25;5.40;99.90
46159;DHT22;74657;45.650;25.590;2024-02-23T01:19:49;5.50;99.90
46159;DHT22;74657;45.650;25.590;2024-02-23T01:22:13;5.60;99.90
46159;DHT22;74657;45.650;25.590;2024-02-23T01:24:36;5.70;99.90
46159;DHT22;74657;45.650;25.590;2024-02-23T01:27:01;5.70;99.90
46159;DHT22;74657;45.650;25.590;2024-02-23T01:29:26;5.80;99.90
46159;DHT22;74657;45.650;25.590;2024-02-23T01:31:49;5.90;99.90
46159;DHT22;74657;45.650;25.590;2024-02-23T01:34:13;6.00;99.90
46159;DHT22;74657;45.650;25.590;2024-02-23T01:36:36;6.10;99.90
46159;DHT22;74657;45.650;25.590;2024-02-23T01:39:00;6.10;99.90
46159;DHT22;74657;45.650;25.590;2024-02-23T01:41:23;6.10;99.90
46159;DHT22;74657;45.650;25.590;2024-02-23T01:43:48;6.10;99.90
46159;DHT22;74657;45.650;25.590;2024-02-23T01:46:13;6.00;99.90
46159;DHT22;74657;45.650;25.590;2024-02-23T01:48:38;5.90;99.90
46159;DHT22;74657;45.650;25.590;2024-02-23T01:51:02;5.80;99.90
46159;DHT22;74657;45.650;25.590;2024-02-23T01:53:26;5.70;99.90
46159;DHT22;74657;45.650;25.590;2024-02-23T01:55:51;5.50;99.90
46159;DHT22;74657;45.650;25.590;2024-02-23T01:58:15;5.40;99.90
46159;DHT22;74657;45.650;25.590;2024-02-23T02:00:40;5.40;99.90
46159;DHT22;74657;45.650;25.590;2024-02-23T02:03:04;5.20;99.90
46159;DHT22;74657;45.650;25.590;2024-02-23T02:05:33;5.10;99.90
46159;DHT22;74657;45.650;25.590;2024-02-23T02:07:58;5.10;99.90
46159;DHT22;74657;45.650;25.590;2024-02-23T02:10:22;5.00;99.90
46159;DHT22;74657;45.650;25.590;2024-02-23T02:12:45;5.00;99.90
46159;DHT22;74657;45.650;25.590;2024-02-23T02:15:09;4.90;99.90
46159;DHT22;74657;45.650;25.590;2024-02-23T02:17:33;4.80;99.90
46159;DHT22;74657;45.650;25.590;2024-02-23T02:19:59;4.70;99.90
46159;DHT22;74657;45.650;25.590;2024-02-23T02:22:25;4.60;99.90
46159;DHT22;74657;45.650;25.590;2024-02-23T02:24:49;4.50;99.90
46159;DHT22;74657;45.650;25.590;2024-02-23T02:27:12;4.50;99.90
46159;DHT22;74657;45.650;25.590;2024-02-23T02:29:35;4.40;99.90
46159;DHT22;74657;45.650;25.590;2024-02-23T02:31:59;4.40;99.90
46159;DHT22;74657;45.650;25.590;2024-02-23T02:34:24;4.40;99.90
46159;DHT22;74657;45.650;25.590;2024-02-23T02:36:47;4.40;99.90
46159;DHT22;74657;45.650;25.590;2024-02-23T02:39:10;4.50;99.90
46159;DHT22;74657;45.650;25.590;2024-02-23T02:41:33;4.50;99.90
46159;DHT22;74657;45.650;25.590;2024-02-23T02:43:56;4.60;99.90
46159;DHT22;74657;45.650;25.590;2024-02-23T02:46:19;4.60;99.90
46159;DHT22;74657;45.650;25.590;2024-02-23T02:48:42;4.60;99.90
46159;DHT22;74657;45.650;25.590;2024-02-23T02:51:07;4.60;99.90
46159;DHT22;74657;45.650;25.590;2024-02-23T02:53:31;4.60;99.90
46159;DHT22;74657;45.650;25.590;2024-02-23T02:55:54;4.60;99.90
46159;DHT22;74657;45.650;25.590;2024-02-23T02:58:18;4.50;99.90
46159;DHT22;74657;45.650;25.590;2024-02-23T03:00:41;4.50;99.90
46159;DHT22;74657;45.650;25.590;2024-02-23T03:03:05;4.40;99.90
46159;DHT22;74657;45.650;25.590;2024-02-23T03:05:28;4.30;99.90
46159;DHT22;74657;45.650;25.590;2024-02-23T03:07:53;4.30;99.90
46159;DHT22;74657;45.650;25.590;2024-02-23T03:10:17;4.30;99.90
46159;DHT22;74657;45.650;25.590;2024-02-23T03:12:40;4.20;99.90
46159;DHT22;74657;45.650;25.590;2024-02-23T03:15:04;4.10;99.90
46159;DHT22;74657;45.650;25.590;2024-02-23T03:17:28;4.10;99.90
46159;DHT22;74657;45.650;25.590;2024-02-23T03:19:51;4.00;99.90
46159;DHT22;74657;45.650;25.590;2024-02-23T03:22:14;3.90;99.90
46159;DHT22;74657;45.650;25.590;2024-02-23T03:24:40;3.80;99.90
46159;DHT22;74657;45.650;25.590;2024-02-23T03:27:03;3.80;99.90
46159;DHT22;74657;45.650;25.590;2024-02-23T03:29:26;3.70;99.90
46159;DHT22;74657;45.650;25.590;2024-02-23T03:31:51;3.70;99.90
46159;DHT22;74657;45.650;25.590;2024-02-23T03:34:15;3.60;99.90
46159;DHT22;74657;45.650;25.590;2024-02-23T03:36:39;3.60;99.90
46159;DHT22;74657;45.650;25.590;2024-02-23T03:39:02;3.70;99.90
46159;DHT22;74657;45.650;25.590;2024-02-23T03:41:26;3.70;99.90
46159;DHT22;74657;45.650;25.590;2024-02-23T03:43:50;3.70;99.90
46159;DHT22;74657;45.650;25.590;2024-02-23T03:46:13;3.70;99.90
46159;DHT22;74657;45.650;25.590;2024-02-23T03:48:38;3.70;99.90
46159;DHT22;74657;45.650;25.590;2024-02-23T03:51:01;3.70;99.90
46159;DHT22;74657;45.650;25.590;2024-02-23T03:53:26;3.70;99.90
46159;DHT22;74657;45.650;25.590;2024-02-23T03:55:49;3.80;99.90
46159;DHT22;74657;45.650;25.590;2024-02-23T03:58:14;3.70;99.90
46159;DHT22;74657;45.650;25.590;2024-02-23T04:00:37;3.60;99.90
46159;DHT22;74657;45.650;25.590;2024-02-23T04:03:00;3.60;99.90
46159;DHT22;74657;45.650;25.590;2024-02-23T04:05:24;3.50;99.90
46159;DHT22;74657;45.650;25.590;2024-02-23T04:07:47;3.60;99.90
46159;DHT22;74657;45.650;25.590;2024-02-23T04:10:10;3.70;99.90
46159;DHT22;74657;45.650;25.590;2024-02-23T04:12:37;3.80;99.90
46159;DHT22;74657;45.650;25.590;2024-02-23T04:15:02;3.90;99.90
46159;DHT22;74657;45.650;25.590;2024-02-23T04:17:25;3.90;99.90
46159;DHT22;74657;45.650;25.590;2024-02-23T04:19:48;3.90;99.90
46159;DHT22;74657;45.650;25.590;2024-02-23T04:22:11;3.80;99.90
46159;DHT22;74657;45.650;25.590;2024-02-23T04:24:34;3.80;99.90
46159;DHT22;74657;45.650;25.590;2024-02-23T04:26:58;3.80;99.90
46159;DHT22;74657;45.650;25.590;2024-02-23T04:29:21;3.70;99.90
46159;DHT22;74657;45.650;25.590;2024-02-23T04:31:45;3.60;99.90
46159;DHT22;74657;45.650;25.590;2024-02-23T04:34:08;3.60;99.90
46159;DHT22;74657;45.650;25.590;2024-02-23T04:36:31;3.50;99.90
46159;DHT22;74657;45.650;25.590;2024-02-23T04:38:55;3.60;99.90
46159;DHT22;74657;45.650;25.590;2024-02-23T04:41:20;3.50;99.90
46159;DHT22;74657;45.650;25.590;2024-02-23T04:43:44;3.40;99.90
46159;DHT22;74657;45.650;25.590;2024-02-23T04:46:07;3.30;99.90
46159;DHT22;74657;45.650;25.590;2024-02-23T04:48:32;3.30;99.90
46159;DHT22;74657;45.650;25.590;2024-02-23T04:50:58;3.40;99.90
46159;DHT22;74657;45.650;25.590;2024-02-23T04:53:21;3.40;99.90
46159;DHT22;74657;45.650;25.590;2024-02-23T04:55:44;3.40;99.90
46159;DHT22;74657;45.650;25.590;2024-02-23T04:58:07;3.30;99.90
46159;DHT22;74657;45.650;25.590;2024-02-23T05:00:31;3.20;99.90
46159;DHT22;74657;45.650;25.590;2024-02-23T05:02:55;3.10;99.90
46159;DHT22;74657;45.650;25.590;2024-02-23T05:05:20;3.00;99.90
46159;DHT22;74657;45.650;25.590;2024-02-23T05:07:44;3.00;99.90
46159;DHT22;74657;45.650;25.590;2024-02-23T05:10:08;3.00;99.90
46159;DHT22;74657;45.650;25.590;2024-02-23T05:12:32;3.00;99.90
46159;DHT22;74657;45.650;25.590;2024-02-23T05:14:55;3.00;99.90
46159;DHT22;74657;45.650;25.590;2024-02-23T05:17:19;3.00;99.90
46159;DHT22;74657;45.650;25.590;2024-02-23T05:19:42;3.00;99.90
46159;DHT22;74657;45.650;25.590;2024-02-23T05:22:06;3.00;99.90
46159;DHT22;74657;45.650;25.590;2024-02-23T05:24:29;3.00;99.90
46159;DHT22;74657;45.650;25.590;2024-02-23T05:26:53;3.00;99.90
46159;DHT22;74657;45.650;25.590;2024-02-23T05:29:16;3.00;99.90
46159;DHT22;74657;45.650;25.590;2024-02-23T05:31:47;3.10;99.90
46159;DHT22;74657;45.650;25.590;2024-02-23T05:34:11;3.10;99.90
46159;DHT22;74657;45.650;25.590;2024-02-23T05:36:34;3.20;99.90
46159;DHT22;74657;45.650;25.590;2024-02-23T05:38:59;3.20;99.90
46159;DHT22;74657;45.650;25.590;2024-02-23T05:41:22;3.20;99.90
46159;DHT22;74657;45.650;25.590;2024-02-23T05:43:46;3.20;99.90
46159;DHT22;74657;45.650;25.590;2024-02-23T05:46:10;3.20;99.90
46159;DHT22;74657;45.650;25.590;2024-02-23T05:48:33;3.20;99.90
46159;DHT22;74657;45.650;25.590;2024-02-23T05:50:56;3.30;99.90
46159;DHT22;74657;45.650;25.590;2024-02-23T05:53:19;3.40;99.90
46159;DHT22;74657;45.650;25.590;2024-02-23T05:55:44;3.50;99.90
46159;DHT22;74657;45.650;25.590;2024-02-23T05:58:08;3.60;99.90
46159;DHT22;74657;45.650;25.590;2024-02-23T06:00:31;3.60;99.90
46159;DHT22;74657;45.650;25.590;2024-02-23T06:02:55;3.60;99.90
46159;DHT22;74657;45.650;25.590;2024-02-23T06:05:19;3.80;99.90
46159;DHT22;74657;45.650;25.590;2024-02-23T06:07:42;3.80;99.90
46159;DHT22;74657;45.650;25.590;2024-02-23T06:10:06;3.80;99.90
46159;DHT22;74657;45.650;25.590;2024-02-23T06:12:32;3.80;99.90
46159;DHT22;74657;45.650;25.590;2024-02-23T06:14:55;3.80;99.90
46159;DHT22;74657;45.650;25.590;2024-02-23T06:17:20;3.90;99.90
46159;DHT22;74657;45.650;25.590;2024-02-23T06:19:44;4.00;99.90
46159;DHT22;74657;45.650;25.590;2024-02-23T06:22:07;3.90;99.90
46159;DHT22;74657;45.650;25.590;2024-02-23T06:24:31;4.00;99.90
46159;DHT22;74657;45.650;25.590;2024-02-23T06:26:54;4.10;99.90
46159;DHT22;74657;45.650;25.590;2024-02-23T06:29:21;4.20;99.90
46159;DHT22;74657;45.650;25.590;2024-02-23T06:31:44;4.30;99.90
46159;DHT22;74657;45.650;25.590;2024-02-23T06:34:10;4.50;99.90
46159;DHT22;74657;45.650;25.590;2024-02-23T06:36:33;4.60;99.90
46159;DHT22;74657;45.650;25.590;2024-02-23T06:38:57;4.80;99.90
46159;DHT22;74657;45.650;25.590;2024-02-23T06:41:20;4.90;99.90
46159;DHT22;74657;45.650;25.590;2024-02-23T06:43:44;4.90;99.90
46159;DHT22;74657;45.650;25.590;2024-02-23T06:46:09;5.00;99.90
46159;DHT22;74657;45.650;25.590;2024-02-23T06:48:32;5.10;99.90
46159;DHT22;74657;45.650;25.590;2024-02-23T06:50:56;5.20;99.90
46159;DHT22;74657;45.650;25.590;2024-02-23T06:53:19;5.40;99.90
46159;DHT22;74657;45.650;25.590;2024-02-23T06:55:42;5.60;99.90
46159;DHT22;74657;45.650;25.590;2024-02-23T06:58:05;5.80;99.90
46159;DHT22;74657;45.650;25.590;2024-02-23T07:00:29;6.10;99.90
46159;DHT22;74657;45.650;25.590;2024-02-23T07:02:54;6.30;99.90
46159;DHT22;74657;45.650;25.590;2024-02-23T07:05:20;6.60;99.90
46159;DHT22;74657;45.650;25.590;2024-02-23T07:07:44;6.90;99.90
46159;DHT22;74657;45.650;25.590;2024-02-23T07:10:09;7.30;99.90
46159;DHT22;74657;45.650;25.590;2024-02-23T07:12:33;7.70;99.90
46159;DHT22;74657;45.650;25.590;2024-02-23T07:14:57;8.40;99.90
46159;DHT22;74657;45.650;25.590;2024-02-23T07:17:20;9.00;99.10
46159;DHT22;74657;45.650;25.590;2024-02-23T07:19:45;9.30;98.30
46159;DHT22;74657;45.650;25.590;2024-02-23T07:22:09;9.40;98.10
46159;DHT22;74657;45.650;25.590;2024-02-23T07:24:32;9.20;98.10
46159;DHT22;74657;45.650;25.590;2024-02-23T07:26:55;9.30;98.30
46159;DHT22;74657;45.650;25.590;2024-02-23T07:29:19;9.60;98.10
46159;DHT22;74657;45.650;25.590;2024-02-23T07:31:42;10.00;97.30
46159;DHT22;74657;45.650;25.590;2024-02-23T07:34:05;10.60;96.30
46159;DHT22;74657;45.650;25.590;2024-02-23T07:36:32;10.50;96.00
46159;DHT22;74657;45.650;25.590;2024-02-23T07:38:56;10.10;95.70
46159;DHT22;74657;45.650;25.590;2024-02-23T07:41:19;10.00;96.40
46159;DHT22;74657;45.650;25.590;2024-02-23T07:43:42;9.80;97.30
46159;DHT22;74657;45.650;25.590;2024-02-23T07:46:05;9.70;97.30
46159;DHT22;74657;45.650;25.590;2024-02-23T07:48:30;10.20;97.00
46159;DHT22;74657;45.650;25.590;2024-02-23T07:50:53;10.80;96.20
46159;DHT22;74657;45.650;25.590;2024-02-23T07:53:18;11.20;95.20
46159;DHT22;74657;45.650;25.590;2024-02-23T07:55:41;11.30;94.00
46159;DHT22;74657;45.650;25.590;2024-02-23T07:58:05;10.90;94.50
46159;DHT22;74657;45.650;25.590;2024-02-23T08:00:27;10.80;94.50
46159;DHT22;74657;45.650;25.590;2024-02-23T08:02:50;10.80;95.00
46159;DHT22;74657;45.650;25.590;2024-02-23T08:05:14;10.60;94.60
46159;DHT22;74657;45.650;25.590;2024-02-23T08:07:38;10.50;95.10
46159;DHT22;74657;45.650;25.590;2024-02-23T08:10:04;10.50;95.20
46159;DHT22;74657;45.650;25.590;2024-02-23T08:12:28;10.60;95.20
46159;DHT22;74657;45.650;25.590;2024-02-23T08:14:52;10.60;94.90
46159;DHT22;74657;45.650;25.590;2024-02-23T08:17:15;10.60;94.50
46159;DHT22;74657;45.650;25.590;2024-02-23T08:19:39;10.50;94.20
46159;DHT22;74657;45.650;25.590;2024-02-23T08:22:02;10.60;94.20
46159;DHT22;74657;45.650;25.590;2024-02-23T08:24:25;11.10;93.90
46159;DHT22;74657;45.650;25.590;2024-02-23T08:26:50;11.70;92.90
46159;DHT22;74657;45.650;25.590;2024-02-23T08:29:13;12.60;91.20
46159;DHT22;74657;45.650;25.590;2024-02-23T08:31:37;13.40;90.20
46159;DHT22;74657;45.650;25.590;2024-02-23T08:34:03;14.00;88.90
46159;DHT22;74657;45.650;25.590;2024-02-23T08:36:26;14.50;87.60
46159;DHT22;74657;45.650;25.590;2024-02-23T08:38:50;14.80;86.20
46159;DHT22;74657;45.650;25.590;2024-02-23T08:41:13;15.10;83.90
46159;DHT22;74657;45.650;25.590;2024-02-23T08:43:38;15.30;81.60
46159;DHT22;74657;45.650;25.590;2024-02-23T08:46:01;15.50;80.90
46159;DHT22;74657;45.650;25.590;2024-02-23T08:48:30;15.60;79.60
46159;DHT22;74657;45.650;25.590;2024-02-23T08:50:53;15.70;79.70
46159;DHT22;74657;45.650;25.590;2024-02-23T08:53:17;15.70;78.80
46159;DHT22;74657;45.650;25.590;2024-02-23T08:55:40;15.80;78.70
46159;DHT22;74657;45.650;25.590;2024-02-23T08:58:03;16.00;78.10
46159;DHT22;74657;45.650;25.590;2024-02-23T09:00:29;16.00;77.80
46159;DHT22;74657;45.650;25.590;2024-02-23T09:02:52;15.50;78.50
46159;DHT22;74657;45.650;25.590;2024-02-23T09:05:15;15.80;79.00
46159;DHT22;74657;45.650;25.590;2024-02-23T09:07:39;16.20;77.00
46159;DHT22;74657;45.650;25.590;2024-02-23T09:10:03;16.50;76.90
46159;DHT22;74657;45.650;25.590;2024-02-23T09:12:26;16.80;75.50
46159;DHT22;74657;45.650;25.590;2024-02-23T09:14:50;17.50;74.90
46159;DHT22;74657;45.650;25.590;2024-02-23T09:17:14;18.20;72.20
46159;DHT22;74657;45.650;25.590;2024-02-23T09:19:37;18.80;69.60
46159;DHT22;74657;45.650;25.590;2024-02-23T09:22:01;19.20;68.60
46159;DHT22;74657;45.650;25.590;2024-02-23T09:24:24;19.00;67.00
46159;DHT22;74657;45.650;25.590;2024-02-23T09:26:47;19.20;67.80
46159;DHT22;74657;45.650;25.590;2024-02-23T09:29:10;20.70;66.70
46159;DHT22;74657;45.650;25.590;2024-02-23T09:31:33;22.90;61.40
46159;DHT22;74657;45.650;25.590;2024-02-23T09:33:58;25.70;55.90
46159;DHT22;74657;45.650;25.590;2024-02-23T09:36:22;28.80;47.80
46159;DHT22;74657;45.650;25.590;2024-02-23T09:38:45;31.30;43.30
46159;DHT22;74657;45.650;25.590;2024-02-23T09:41:17;32.60;40.80
46159;DHT22;74657;45.650;25.590;2024-02-23T09:43:42;34.20;38.50
46159;DHT22;74657;45.650;25.590;2024-02-23T09:46:07;36.10;37.60
46159;DHT22;74657;45.650;25.590;2024-02-23T09:48:31;37.80;36.30
46159;DHT22;74657;45.650;25.590;2024-02-23T09:50:59;39.10;35.90
46159;DHT22;74657;45.650;25.590;2024-02-23T09:53:23;40.30;35.20
46159;DHT22;74657;45.650;25.590;2024-02-23T09:55:48;40.60;34.20
46159;DHT22;74657;45.650;25.590;2024-02-23T09:58:14;38.70;34.50
46159;DHT22;74657;45.650;25.590;2024-02-23T10:00:39;38.20;34.60
46159;DHT22;74657;45.650;25.590;2024-02-23T10:03:03;36.50;35.20
46159;DHT22;74657;45.650;25.590;2024-02-23T10:05:30;36.10;34.70
46159;DHT22;74657;45.650;25.590;2024-02-23T10:08:00;32.20;36.60
46159;DHT22;74657;45.650;25.590;2024-02-23T10:10:29;28.40;38.30
46159;DHT22;74657;45.650;25.590;2024-02-23T10:12:53;27.00;39.80
46159;DHT22;74657;45.650;25.590;2024-02-23T10:15:16;25.60;40.00
46159;DHT22;74657;45.650;25.590;2024-02-23T10:17:39;23.80;41.60
46159;DHT22;74657;45.650;25.590;2024-02-23T10:20:02;22.00;43.80
46159;DHT22;74657;45.650;25.590;2024-02-23T10:22:26;20.70;44.70
46159;DHT22;74657;45.650;25.590;2024-02-23T10:24:53;19.90;46.00
46159;DHT22;74657;45.650;25.590;2024-02-23T10:27:16;19.30;46.40
46159;DHT22;74657;45.650;25.590;2024-02-23T10:29:39;18.70;48.00
46159;DHT22;74657;45.650;25.590;2024-02-23T10:32:04;18.30;47.70
46159;DHT22;74657;45.650;25.590;2024-02-23T10:34:30;18.10;48.60
46159;DHT22;74657;45.650;25.590;2024-02-23T10:36:54;18.00;48.30
46159;DHT22;74657;45.650;25.590;2024-02-23T10:39:19;18.10;48.80
46159;DHT22;74657;45.650;25.590;2024-02-23T10:41:47;18.40;48.70
46159;DHT22;74657;45.650;25.590;2024-02-23T10:44:11;18.60;48.80
46159;DHT22;74657;45.650;25.590;2024-02-23T10:46:34;19.40;47.30
46159;DHT22;74657;45.650;25.590;2024-02-23T10:48:58;20.10;46.30
46159;DHT22;74657;45.650;25.590;2024-02-23T10:51:22;20.40;46.50
46159;DHT22;74657;45.650;25.590;2024-02-23T10:53:47;20.00;46.70
46159;DHT22;74657;45.650;25.590;2024-02-23T10:56:12;19.50;47.20
46159;DHT22;74657;45.650;25.590;2024-02-23T10:58:36;19.70;47.20
46159;DHT22;74657;45.650;25.590;2024-02-23T11:01:01;20.60;45.50
46159;DHT22;74657;45.650;25.590;2024-02-23T11:03:24;22.20;44.50
46159;DHT22;74657;45.650;25.590;2024-02-23T11:05:48;22.90;44.30
46159;DHT22;74657;45.650;25.590;2024-02-23T11:08:13;24.90;42.90
46159;DHT22;74657;45.650;25.590;2024-02-23T11:10:42;28.80;40.00
46159;DHT22;74657;45.650;25.590;2024-02-23T11:13:08;31.60;38.30
46159;DHT22;74657;45.650;25.590;2024-02-23T11:15:34;32.50;36.50
46159;DHT22;74657;45.650;25.590;2024-02-23T11:18:02;31.00;38.00
46159;DHT22;74657;45.650;25.590;2024-02-23T11:20:34;28.70;39.10
46159;DHT22;74657;45.650;25.590;2024-02-23T11:22:58;26.60;40.30
46159;DHT22;74657;45.650;25.590;2024-02-23T11:25:27;24.70;42.60
46159;DHT22;74657;45.650;25.590;2024-02-23T11:27:50;22.30;44.20
46159;DHT22;74657;45.650;25.590;2024-02-23T11:30:17;20.80;46.70
46159;DHT22;74657;45.650;25.590;2024-02-23T11:32:44;19.70;47.10
46159;DHT22;74657;45.650;25.590;2024-02-23T11:35:11;18.50;47.60
46159;DHT22;74657;45.650;25.590;2024-02-23T11:37:47;17.70;50.20
46159;DHT22;74657;45.650;25.590;2024-02-23T11:40:12;17.10;51.60
46159;DHT22;74657;45.650;25.590;2024-02-23T11:42:37;17.00;51.80
46159;DHT22;74657;45.650;25.590;2024-02-23T11:45:04;16.80;52.00
46159;DHT22;74657;45.650;25.590;2024-02-23T11:47:27;16.70;52.50
46159;DHT22;74657;45.650;25.590;2024-02-23T11:49:52;16.40;52.30
46159;DHT22;74657;45.650;25.590;2024-02-23T11:52:15;16.20;52.80
46159;DHT22;74657;45.650;25.590;2024-02-23T11:54:39;16.20;52.80
46159;DHT22;74657;45.650;25.590;2024-02-23T11:57:03;16.00;53.50
46159;DHT22;74657;45.650;25.590;2024-02-23T11:59:27;16.10;54.10
46159;DHT22;74657;45.650;25.590;2024-02-23T12:01:50;16.10;54.70
46159;DHT22;74657;45.650;25.590;2024-02-23T12:04:14;16.30;52.60
46159;DHT22;74657;45.650;25.590;2024-02-23T12:06:40;16.60;52.00
46159;DHT22;74657;45.650;25.590;2024-02-23T12:09:03;17.40;51.40
46159;DHT22;74657;45.650;25.590;2024-02-23T12:11:27;18.30;49.30
46159;DHT22;74657;45.650;25.590;2024-02-23T12:13:51;18.70;48.90
46159;DHT22;74657;45.650;25.590;2024-02-23T12:16:14;20.60;46.70
46159;DHT22;74657;45.650;25.590;2024-02-23T12:18:37;21.20;45.60
46159;DHT22;74657;45.650;25.590;2024-02-23T12:21:01;21.40;45.10
46159;DHT22;74657;45.650;25.590;2024-02-23T12:23:26;20.80;45.60
46159;DHT22;74657;45.650;25.590;2024-02-23T12:25:56;20.10;47.10
46159;DHT22;74657;45.650;25.590;2024-02-23T12:28:21;19.40;47.70
46159;DHT22;74657;45.650;25.590;2024-02-23T12:30:44;18.70;46.80
46159;DHT22;74657;45.650;25.590;2024-02-23T12:33:08;18.30;48.60
46159;DHT22;74657;45.650;25.590;2024-02-23T12:35:34;18.00;49.10
46159;DHT22;74657;45.650;25.590;2024-02-23T12:37:57;17.90;49.20
46159;DHT22;74657;45.650;25.590;2024-02-23T12:40:22;17.90;49.20
46159;DHT22;74657;45.650;25.590;2024-02-23T12:42:45;18.20;49.00
46159;DHT22;74657;45.650;25.590;2024-02-23T12:45:10;18.50;48.70
46159;DHT22;74657;45.650;25.590;2024-02-23T12:47:34;18.70;48.40
46159;DHT22;74657;45.650;25.590;2024-02-23T12:49:57;19.00;47.90
46159;DHT22;74657;45.650;25.590;2024-02-23T12:52:21;18.90;48.50
46159;DHT22;74657;45.650;25.590;2024-02-23T12:54:44;18.90;48.20
46159;DHT22;74657;45.650;25.590;2024-02-23T12:57:12;18.90;48.80
46159;DHT22;74657;45.650;25.590;2024-02-23T12:59:35;18.90;48.90
46159;DHT22;74657;45.650;25.590;2024-02-23T13:01:58;18.70;49.10
46159;DHT22;74657;45.650;25.590;2024-02-23T13:04:21;18.40;49.60
46159;DHT22;74657;45.650;25.590;2024-02-23T13:06:44;18.20;50.20
46159;DHT22;74657;45.650;25.590;2024-02-23T13:09:09;17.90;49.60
46159;DHT22;74657;45.650;25.590;2024-02-23T13:11:34;17.80;50.10
46159;DHT22;74657;45.650;25.590;2024-02-23T13:13:59;17.70;50.50
46159;DHT22;74657;45.650;25.590;2024-02-23T13:16:22;17.60;50.30
46159;DHT22;74657;45.650;25.590;2024-02-23T13:18:45;17.50;49.70
46159;DHT22;74657;45.650;25.590;2024-02-23T13:21:09;17.40;50.90
46159;DHT22;74657;45.650;25.590;2024-02-23T13:23:34;17.20;51.30
46159;DHT22;74657;45.650;25.590;2024-02-23T13:25:58;17.00;51.50
46159;DHT22;74657;45.650;25.590;2024-02-23T13:28:25;16.70;52.00
46159;DHT22;74657;45.650;25.590;2024-02-23T13:30:50;16.40;52.90
46159;DHT22;74657;45.650;25.590;2024-02-23T13:33:13;16.30;53.00
46159;DHT22;74657;45.650;25.590;2024-02-23T13:35:38;16.10;53.50
46159;DHT22;74657;45.650;25.590;2024-02-23T13:38:02;15.80;53.50
46159;DHT22;74657;45.650;25.590;2024-02-23T13:40:25;15.60;53.70
46159;DHT22;74657;45.650;25.590;2024-02-23T13:42:48;15.40;54.70
46159;DHT22;74657;45.650;25.590;2024-02-23T13:45:13;15.20;55.00
46159;DHT22;74657;45.650;25.590;2024-02-23T13:47:38;15.00;55.60
46159;DHT22;74657;45.650;25.590;2024-02-23T13:50:02;14.90;56.30
46159;DHT22;74657;45.650;25.590;2024-02-23T13:52:26;14.70;56.10
46159;DHT22;74657;45.650;25.590;2024-02-23T13:54:49;14.60;56.60
46159;DHT22;74657;45.650;25.590;2024-02-23T13:57:13;14.40;56.50
46159;DHT22;74657;45.650;25.590;2024-02-23T13:59:36;14.30;56.70
46159;DHT22;74657;45.650;25.590;2024-02-23T14:01:59;14.10;57.60
46159;DHT22;74657;45.650;25.590;2024-02-23T14:04:24;13.90;58.10
46159;DHT22;74657;45.650;25.590;2024-02-23T14:06:48;13.70;59.00
46159;DHT22;74657;45.650;25.590;2024-02-23T14:09:11;13.50;59.20
46159;DHT22;74657;45.650;25.590;2024-02-23T14:11:34;13.40;59.90
46159;DHT22;74657;45.650;25.590;2024-02-23T14:13:58;13.20;60.10
46159;DHT22;74657;45.650;25.590;2024-02-23T14:16:21;13.00;60.30
46159;DHT22;74657;45.650;25.590;2024-02-23T14:18:44;12.90;61.20
46159;DHT22;74657;45.650;25.590;2024-02-23T14:21:09;12.70;61.80
46159;DHT22;74657;45.650;25.590;2024-02-23T14:23:35;12.70;62.30
46159;DHT22;74657;45.650;25.590;2024-02-23T14:25:59;12.60;62.20
46159;DHT22;74657;45.650;25.590;2024-02-23T14:28:22;12.50;62.50
46159;DHT22;74657;45.650;25.590;2024-02-23T14:30:45;12.50;63.10
46159;DHT22;74657;45.650;25.590;2024-02-23T14:33:08;12.50;62.70
46159;DHT22;74657;45.650;25.590;2024-02-23T14:35:31;12.50;63.10
46159;DHT22;74657;45.650;25.590;2024-02-23T14:37:56;12.40;63.50
46159;DHT22;74657;45.650;25.590;2024-02-23T14:40:19;12.40;63.20
46159;DHT22;74657;45.650;25.590;2024-02-23T14:42:43;12.30;63.50
46159;DHT22;74657;45.650;25.590;2024-02-23T14:45:07;12.30;64.10
46159;DHT22;74657;45.650;25.590;2024-02-23T14:47:31;12.20;64.70
46159;DHT22;74657;45.650;25.590;2024-02-23T14:50:07;12.20;64.40
46159;DHT22;74657;45.650;25.590;2024-02-23T14:52:31;12.20;63.80
46159;DHT22;74657;45.650;25.590;2024-02-23T14:54:56;12.20;64.00
46159;DHT22;74657;45.650;25.590;2024-02-23T14:57:19;12.10;64.60
46159;DHT22;74657;45.650;25.590;2024-02-23T14:59:42;12.00;64.60
46159;DHT22;74657;45.650;25.590;2024-02-23T15:02:09;12.00;66.10